This is the latest recevied weather packets stored in our database for station/object DB0PET-13. If no packets are shown the sender has not sent any weather packets the latest 10 day(s).
| Time | Temp. | Humidity | Pressure | Rain* | Wind** | Luminosity | Snow |
|---|---|---|---|---|---|---|---|
| 1778019612 | 11.67° C | 99% | 1011.7 hPa | 0 mm | - | - | - |
| 1778018650 | 11.67° C | 99% | 1011.8 hPa | 0.25 mm | - | - | - |
| 1778017688 | 11.67° C | 99% | 1012.1 hPa | 0.25 mm | - | - | - |
| 1778016731 | 11.67° C | 99% | 1011.9 hPa | 0.51 mm | - | - | - |
| 1778015767 | 11.67° C | 99% | 1012.2 hPa | 0.51 mm | - | - | - |
| 1778014808 | 11.67° C | 99% | 1012.1 hPa | 1.02 mm | - | - | - |
| 1778013850 | 11.67° C | 99% | 1012.2 hPa | 2.03 mm | - | - | - |
| 1778012892 | 11.67° C | 99% | 1012.2 hPa | 2.54 mm | - | - | - |
| 1778010968 | 11.67° C | 99% | 1012.2 hPa | 4.06 mm | - | - | - |
| 1778010010 | 12.22° C | 99% | 1012.1 hPa | 4.32 mm | - | - | - |
| 1778009051 | 12.22° C | 99% | 1012.1 hPa | 4.06 mm | - | - | - |
| 1778008093 | 12.22° C | 99% | 1011.8 hPa | 3.81 mm | - | - | - |
| 1778007130 | 12.78° C | 99% | 1011.6 hPa | 3.56 mm | - | - | - |
| 1778006169 | 12.78° C | 99% | 1011.6 hPa | 3.05 mm | - | - | - |
| 1778005211 | 12.78° C | 99% | 1011.7 hPa | 5.84 mm | - | - | - |
| 1778004250 | 12.78° C | 99% | 1011.7 hPa | 8.38 mm | - | - | - |
| 1778003293 | 13.33° C | 99% | 1011.6 hPa | 7.37 mm | - | - | - |
| 1778002331 | 13.33° C | 97% | 1011.7 hPa | 6.86 mm | - | - | - |
| 1778001369 | 13.89° C | 94% | 1011.7 hPa | 2.03 mm | - | - | - |
| 1778000409 | 15° C | 90% | 1011.6 hPa | 0 mm | - | - | - |
| 1777999450 | 15.56° C | 84% | 1011.3 hPa | 0 mm | - | - | - |
| 1777998550 | 16.67° C | 78% | 1011.3 hPa | 0 mm | - | - | - |
| 1777998492 | 16.67° C | 78% | 1011.3 hPa | 0 mm | - | - | - |
| 1777997529 | 17.22° C | 75% | 1011.2 hPa | 0 mm | - | - | - |
| 1777996568 | 17.78° C | 70% | 1011.3 hPa | 0 mm | - | - | - |
* Rain latest hour (hover to see other rain measurements)
** Current wind speed in m/s (hover to see current wind gust speed)